sensor_id;sensor_type;location;lat;lon;timestamp;P1;durP1;ratioP1;P2;durP2;ratioP2
78589;SDS011;67888;50.228;7.828;2023-02-28T00:03:33;8.40;;;2.47;;
78589;SDS011;67888;50.228;7.828;2023-02-28T00:08:36;6.82;;;2.70;;
78589;SDS011;67888;50.228;7.828;2023-02-28T00:13:39;8.07;;;2.58;;
78589;SDS011;67888;50.228;7.828;2023-02-28T00:18:41;7.10;;;3.13;;
78589;SDS011;67888;50.228;7.828;2023-02-28T00:23:42;6.70;;;2.77;;
78589;SDS011;67888;50.228;7.828;2023-02-28T00:28:42;7.90;;;2.80;;
78589;SDS011;67888;50.228;7.828;2023-02-28T00:33:43;5.83;;;2.40;;
78589;SDS011;67888;50.228;7.828;2023-02-28T00:38:43;7.57;;;3.20;;
78589;SDS011;67888;50.228;7.828;2023-02-28T00:43:44;6.53;;;2.47;;
78589;SDS011;67888;50.228;7.828;2023-02-28T00:48:44;7.90;;;2.90;;
78589;SDS011;67888;50.228;7.828;2023-02-28T00:53:44;8.53;;;2.77;;
78589;SDS011;67888;50.228;7.828;2023-02-28T00:58:45;7.27;;;2.90;;
78589;SDS011;67888;50.228;7.828;2023-02-28T01:03:45;9.47;;;3.10;;
78589;SDS011;67888;50.228;7.828;2023-02-28T01:08:46;8.27;;;3.20;;
78589;SDS011;67888;50.228;7.828;2023-02-28T01:13:46;7.72;;;2.92;;
78589;SDS011;67888;50.228;7.828;2023-02-28T01:18:47;6.77;;;3.00;;
78589;SDS011;67888;50.228;7.828;2023-02-28T01:23:47;7.67;;;2.80;;
78589;SDS011;67888;50.228;7.828;2023-02-28T01:28:49;9.17;;;3.90;;
78589;SDS011;67888;50.228;7.828;2023-02-28T01:33:51;7.93;;;3.40;;
78589;SDS011;67888;50.228;7.828;2023-02-28T01:38:51;9.33;;;3.07;;
78589;SDS011;67888;50.228;7.828;2023-02-28T01:43:57;8.30;;;3.23;;
78589;SDS011;67888;50.228;7.828;2023-02-28T01:49:11;8.30;;;3.87;;
78589;SDS011;67888;50.228;7.828;2023-02-28T01:54:16;8.30;;;3.30;;
78589;SDS011;67888;50.228;7.828;2023-02-28T01:59:22;9.47;;;4.00;;
78589;SDS011;67888;50.228;7.828;2023-02-28T02:04:32;8.27;;;3.83;;
78589;SDS011;67888;50.228;7.828;2023-02-28T02:09:37;8.50;;;3.65;;
78589;SDS011;67888;50.228;7.828;2023-02-28T02:30:27;7.40;;;3.38;;
78589;SDS011;67888;50.228;7.828;2023-02-28T02:35:49;9.32;;;3.53;;
78589;SDS011;67888;50.228;7.828;2023-02-28T02:51:38;9.82;;;4.10;;
78589;SDS011;67888;50.228;7.828;2023-02-28T02:56:41;8.20;;;4.27;;
78589;SDS011;67888;50.228;7.828;2023-02-28T03:01:45;8.80;;;4.00;;
78589;SDS011;67888;50.228;7.828;2023-02-28T03:06:45;9.40;;;4.10;;
78589;SDS011;67888;50.228;7.828;2023-02-28T03:11:46;8.37;;;4.13;;
78589;SDS011;67888;50.228;7.828;2023-02-28T03:22:14;8.93;;;4.43;;
78589;SDS011;67888;50.228;7.828;2023-02-28T03:27:21;9.60;;;4.10;;
78589;SDS011;67888;50.228;7.828;2023-02-28T03:32:28;8.07;;;3.70;;
78589;SDS011;67888;50.228;7.828;2023-02-28T03:37:34;9.57;;;3.90;;
78589;SDS011;67888;50.228;7.828;2023-02-28T03:42:38;11.27;;;3.70;;
78589;SDS011;67888;50.228;7.828;2023-02-28T03:48:00;9.15;;;3.97;;
78589;SDS011;67888;50.228;7.828;2023-02-28T03:53:15;9.53;;;4.07;;
78589;SDS011;67888;50.228;7.828;2023-02-28T03:58:26;8.52;;;3.80;;
78589;SDS011;67888;50.228;7.828;2023-02-28T04:03:49;8.45;;;3.63;;
78589;SDS011;67888;50.228;7.828;2023-02-28T04:08:50;8.63;;;4.10;;
78589;SDS011;67888;50.228;7.828;2023-02-28T04:13:50;9.38;;;3.88;;
78589;SDS011;67888;50.228;7.828;2023-02-28T04:18:51;9.37;;;3.47;;
78589;SDS011;67888;50.228;7.828;2023-02-28T04:23:51;9.70;;;3.63;;
78589;SDS011;67888;50.228;7.828;2023-02-28T04:28:52;8.23;;;3.80;;
78589;SDS011;67888;50.228;7.828;2023-02-28T04:33:52;9.43;;;4.50;;
78589;SDS011;67888;50.228;7.828;2023-02-28T04:38:53;8.97;;;3.83;;
78589;SDS011;67888;50.228;7.828;2023-02-28T04:43:53;9.07;;;3.65;;
78589;SDS011;67888;50.228;7.828;2023-02-28T04:48:54;8.50;;;3.70;;
78589;SDS011;67888;50.228;7.828;2023-02-28T04:53:54;9.60;;;4.10;;
78589;SDS011;67888;50.228;7.828;2023-02-28T04:58:55;9.87;;;4.10;;
78589;SDS011;67888;50.228;7.828;2023-02-28T05:03:56;10.27;;;3.83;;
78589;SDS011;67888;50.228;7.828;2023-02-28T05:08:58;10.47;;;4.67;;
78589;SDS011;67888;50.228;7.828;2023-02-28T05:13:59;10.07;;;4.15;;
78589;SDS011;67888;50.228;7.828;2023-02-28T05:19:00;8.73;;;3.73;;
78589;SDS011;67888;50.228;7.828;2023-02-28T05:24:01;9.67;;;4.03;;
78589;SDS011;67888;50.228;7.828;2023-02-28T05:29:12;11.25;;;4.13;;
78589;SDS011;67888;50.228;7.828;2023-02-28T05:34:12;9.27;;;4.00;;
78589;SDS011;67888;50.228;7.828;2023-02-28T05:39:15;10.30;;;4.30;;
78589;SDS011;67888;50.228;7.828;2023-02-28T05:44:16;9.43;;;4.17;;
78589;SDS011;67888;50.228;7.828;2023-02-28T05:49:16;10.47;;;3.73;;
78589;SDS011;67888;50.228;7.828;2023-02-28T05:54:16;10.77;;;5.03;;
78589;SDS011;67888;50.228;7.828;2023-02-28T05:59:17;10.90;;;5.50;;
78589;SDS011;67888;50.228;7.828;2023-02-28T06:04:18;25.73;;;9.87;;
78589;SDS011;67888;50.228;7.828;2023-02-28T06:09:19;24.73;;;9.53;;
78589;SDS011;67888;50.228;7.828;2023-02-28T06:14:20;14.63;;;6.50;;
78589;SDS011;67888;50.228;7.828;2023-02-28T06:19:21;13.10;;;5.77;;
78589;SDS011;67888;50.228;7.828;2023-02-28T06:24:23;10.73;;;4.80;;
78589;SDS011;67888;50.228;7.828;2023-02-28T06:29:25;9.67;;;4.90;;
78589;SDS011;67888;50.228;7.828;2023-02-28T06:34:25;10.32;;;4.75;;
78589;SDS011;67888;50.228;7.828;2023-02-28T06:39:26;10.70;;;4.53;;
78589;SDS011;67888;50.228;7.828;2023-02-28T06:44:26;7.97;;;3.47;;
78589;SDS011;67888;50.228;7.828;2023-02-28T06:49:26;9.97;;;4.50;;
78589;SDS011;67888;50.228;7.828;2023-02-28T06:54:27;9.95;;;4.30;;
78589;SDS011;67888;50.228;7.828;2023-02-28T06:59:28;11.03;;;4.93;;
78589;SDS011;67888;50.228;7.828;2023-02-28T07:04:28;10.93;;;4.30;;
78589;SDS011;67888;50.228;7.828;2023-02-28T07:09:29;10.20;;;4.13;;
78589;SDS011;67888;50.228;7.828;2023-02-28T07:14:30;9.52;;;4.40;;
78589;SDS011;67888;50.228;7.828;2023-02-28T07:19:30;10.27;;;4.63;;
78589;SDS011;67888;50.228;7.828;2023-02-28T07:24:30;8.73;;;3.90;;
78589;SDS011;67888;50.228;7.828;2023-02-28T07:29:31;9.60;;;4.50;;
78589;SDS011;67888;50.228;7.828;2023-02-28T07:34:32;9.33;;;4.30;;
78589;SDS011;67888;50.228;7.828;2023-02-28T07:39:32;9.60;;;4.43;;
78589;SDS011;67888;50.228;7.828;2023-02-28T07:44:33;10.33;;;4.50;;
78589;SDS011;67888;50.228;7.828;2023-02-28T07:49:34;10.03;;;4.63;;
78589;SDS011;67888;50.228;7.828;2023-02-28T07:54:35;9.27;;;4.13;;
78589;SDS011;67888;50.228;7.828;2023-02-28T07:59:35;11.33;;;4.43;;
78589;SDS011;67888;50.228;7.828;2023-02-28T08:04:36;8.17;;;3.73;;
78589;SDS011;67888;50.228;7.828;2023-02-28T08:09:36;9.37;;;3.87;;
78589;SDS011;67888;50.228;7.828;2023-02-28T08:14:37;11.00;;;3.70;;
78589;SDS011;67888;50.228;7.828;2023-02-28T08:19:38;11.10;;;4.20;;
78589;SDS011;67888;50.228;7.828;2023-02-28T08:24:40;10.20;;;4.15;;
78589;SDS011;67888;50.228;7.828;2023-02-28T08:29:41;10.33;;;4.17;;
78589;SDS011;67888;50.228;7.828;2023-02-28T08:34:42;10.87;;;4.53;;
78589;SDS011;67888;50.228;7.828;2023-02-28T08:39:42;10.67;;;3.60;;
78589;SDS011;67888;50.228;7.828;2023-02-28T08:44:43;9.40;;;3.67;;
78589;SDS011;67888;50.228;7.828;2023-02-28T08:49:43;8.07;;;3.57;;
78589;SDS011;67888;50.228;7.828;2023-02-28T08:54:43;10.20;;;3.60;;
78589;SDS011;67888;50.228;7.828;2023-02-28T08:59:44;9.37;;;3.70;;
78589;SDS011;67888;50.228;7.828;2023-02-28T09:04:44;9.27;;;3.83;;
78589;SDS011;67888;50.228;7.828;2023-02-28T09:09:47;9.70;;;3.73;;
78589;SDS011;67888;50.228;7.828;2023-02-28T09:14:54;8.77;;;3.97;;
78589;SDS011;67888;50.228;7.828;2023-02-28T09:19:54;7.73;;;3.50;;
78589;SDS011;67888;50.228;7.828;2023-02-28T09:24:54;8.33;;;4.00;;
78589;SDS011;67888;50.228;7.828;2023-02-28T09:29:55;7.70;;;3.50;;
78589;SDS011;67888;50.228;7.828;2023-02-28T09:34:55;9.73;;;3.60;;
78589;SDS011;67888;50.228;7.828;2023-02-28T09:39:55;9.87;;;3.03;;
78589;SDS011;67888;50.228;7.828;2023-02-28T09:44:56;7.87;;;2.93;;
78589;SDS011;67888;50.228;7.828;2023-02-28T10:00:42;7.30;;;3.27;;
78589;SDS011;67888;50.228;7.828;2023-02-28T10:10:44;8.37;;;3.20;;
78589;SDS011;67888;50.228;7.828;2023-02-28T10:15:47;8.85;;;3.83;;
78589;SDS011;67888;50.228;7.828;2023-02-28T10:20:52;7.80;;;3.72;;
78589;SDS011;67888;50.228;7.828;2023-02-28T10:25:59;8.17;;;3.50;;
78589;SDS011;67888;50.228;7.828;2023-02-28T10:31:05;8.75;;;3.63;;
78589;SDS011;67888;50.228;7.828;2023-02-28T10:36:13;9.30;;;4.00;;
78589;SDS011;67888;50.228;7.828;2023-02-28T10:41:26;8.03;;;3.57;;
78589;SDS011;67888;50.228;7.828;2023-02-28T10:46:28;8.18;;;3.90;;
78589;SDS011;67888;50.228;7.828;2023-02-28T10:51:36;8.45;;;3.72;;
78589;SDS011;67888;50.228;7.828;2023-02-28T10:56:38;8.80;;;3.90;;
78589;SDS011;67888;50.228;7.828;2023-02-28T11:01:40;10.73;;;4.70;;
78589;SDS011;67888;50.228;7.828;2023-02-28T11:06:45;9.10;;;4.20;;
78589;SDS011;67888;50.228;7.828;2023-02-28T11:11:46;8.90;;;3.90;;
78589;SDS011;67888;50.228;7.828;2023-02-28T11:16:48;9.17;;;3.70;;
78589;SDS011;67888;50.228;7.828;2023-02-28T11:21:54;8.87;;;3.50;;
78589;SDS011;67888;50.228;7.828;2023-02-28T11:26:58;10.10;;;4.43;;
78589;SDS011;67888;50.228;7.828;2023-02-28T11:32:07;8.93;;;4.33;;
78589;SDS011;67888;50.228;7.828;2023-02-28T11:37:14;9.88;;;5.03;;
78589;SDS011;67888;50.228;7.828;2023-02-28T11:53:02;29.42;;;13.68;;
78589;SDS011;67888;50.228;7.828;2023-02-28T12:09:39;52.58;;;20.75;;
78589;SDS011;67888;50.228;7.828;2023-02-28T12:20:24;12.03;;;5.13;;
78589;SDS011;67888;50.228;7.828;2023-02-28T12:31:31;17.90;;;9.63;;
78589;SDS011;67888;50.228;7.828;2023-02-28T12:36:34;12.48;;;6.60;;
78589;SDS011;67888;50.228;7.828;2023-02-28T12:41:47;21.88;;;13.65;;
78589;SDS011;67888;50.228;7.828;2023-02-28T12:46:52;11.73;;;5.30;;
78589;SDS011;67888;50.228;7.828;2023-02-28T12:51:59;14.30;;;7.28;;
78589;SDS011;67888;50.228;7.828;2023-02-28T13:12:53;13.25;;;6.47;;
78589;SDS011;67888;50.228;7.828;2023-02-28T13:17:56;10.90;;;4.73;;
78589;SDS011;67888;50.228;7.828;2023-02-28T13:22:59;9.10;;;4.73;;
78589;SDS011;67888;50.228;7.828;2023-02-28T13:28:02;9.35;;;5.05;;
78589;SDS011;67888;50.228;7.828;2023-02-28T13:38:49;9.23;;;4.90;;
78589;SDS011;67888;50.228;7.828;2023-02-28T13:44:02;8.95;;;4.88;;
78589;SDS011;67888;50.228;7.828;2023-02-28T13:49:25;9.27;;;5.22;;
78589;SDS011;67888;50.228;7.828;2023-02-28T14:00:02;9.70;;;5.15;;
78589;SDS011;67888;50.228;7.828;2023-02-28T14:05:18;9.82;;;5.40;;
78589;SDS011;67888;50.228;7.828;2023-02-28T14:10:30;9.10;;;5.40;;
78589;SDS011;67888;50.228;7.828;2023-02-28T14:20:33;10.43;;;5.50;;
78589;SDS011;67888;50.228;7.828;2023-02-28T14:25:37;8.32;;;5.40;;
78589;SDS011;67888;50.228;7.828;2023-02-28T14:31:00;9.48;;;5.65;;
78589;SDS011;67888;50.228;7.828;2023-02-28T14:36:12;8.43;;;5.57;;
78589;SDS011;67888;50.228;7.828;2023-02-28T14:41:16;8.88;;;5.78;;
78589;SDS011;67888;50.228;7.828;2023-02-28T14:46:22;8.50;;;5.30;;
78589;SDS011;67888;50.228;7.828;2023-02-28T14:51:25;9.30;;;5.63;;
78589;SDS011;67888;50.228;7.828;2023-02-28T14:56:28;11.52;;;7.25;;
78589;SDS011;67888;50.228;7.828;2023-02-28T15:01:34;10.98;;;6.00;;
78589;SDS011;67888;50.228;7.828;2023-02-28T15:06:34;8.83;;;5.60;;
78589;SDS011;67888;50.228;7.828;2023-02-28T15:11:35;9.50;;;5.80;;
78589;SDS011;67888;50.228;7.828;2023-02-28T15:16:37;8.57;;;4.93;;
78589;SDS011;67888;50.228;7.828;2023-02-28T15:21:42;8.97;;;5.20;;
78589;SDS011;67888;50.228;7.828;2023-02-28T15:26:47;8.77;;;5.30;;
78589;SDS011;67888;50.228;7.828;2023-02-28T15:32:01;9.05;;;4.75;;
78589;SDS011;67888;50.228;7.828;2023-02-28T15:37:02;11.98;;;8.68;;
78589;SDS011;67888;50.228;7.828;2023-02-28T15:42:27;7.73;;;4.63;;
78589;SDS011;67888;50.228;7.828;2023-02-28T15:47:29;7.82;;;4.38;;
78589;SDS011;67888;50.228;7.828;2023-02-28T15:57:36;8.87;;;4.90;;
78589;SDS011;67888;50.228;7.828;2023-02-28T16:02:40;9.50;;;4.80;;
78589;SDS011;67888;50.228;7.828;2023-02-28T16:07:41;9.93;;;4.60;;
78589;SDS011;67888;50.228;7.828;2023-02-28T16:12:43;9.07;;;4.80;;
78589;SDS011;67888;50.228;7.828;2023-02-28T16:17:43;8.07;;;4.45;;
78589;SDS011;67888;50.228;7.828;2023-02-28T16:22:45;9.00;;;4.43;;
78589;SDS011;67888;50.228;7.828;2023-02-28T16:27:47;8.73;;;4.53;;
78589;SDS011;67888;50.228;7.828;2023-02-28T16:32:50;9.00;;;4.47;;
78589;SDS011;67888;50.228;7.828;2023-02-28T16:37:51;10.68;;;6.15;;
78589;SDS011;67888;50.228;7.828;2023-02-28T16:42:53;12.88;;;5.63;;
78589;SDS011;67888;50.228;7.828;2023-02-28T16:47:58;10.07;;;4.60;;
78589;SDS011;67888;50.228;7.828;2023-02-28T16:52:59;9.55;;;4.75;;
78589;SDS011;67888;50.228;7.828;2023-02-28T16:58:00;11.93;;;6.00;;
78589;SDS011;67888;50.228;7.828;2023-02-28T17:03:01;10.20;;;4.83;;
78589;SDS011;67888;50.228;7.828;2023-02-28T17:08:02;12.45;;;7.35;;
78589;SDS011;67888;50.228;7.828;2023-02-28T17:13:03;11.07;;;6.03;;
78589;SDS011;67888;50.228;7.828;2023-02-28T17:18:03;9.43;;;5.07;;
78589;SDS011;67888;50.228;7.828;2023-02-28T17:23:04;10.57;;;4.72;;
78589;SDS011;67888;50.228;7.828;2023-02-28T17:28:05;9.63;;;4.57;;
78589;SDS011;67888;50.228;7.828;2023-02-28T17:33:05;11.23;;;4.50;;
78589;SDS011;67888;50.228;7.828;2023-02-28T17:38:16;9.50;;;4.70;;
78589;SDS011;67888;50.228;7.828;2023-02-28T17:43:18;10.70;;;5.00;;
78589;SDS011;67888;50.228;7.828;2023-02-28T17:48:18;11.20;;;4.93;;
78589;SDS011;67888;50.228;7.828;2023-02-28T17:53:19;10.27;;;4.77;;
78589;SDS011;67888;50.228;7.828;2023-02-28T17:58:28;12.10;;;5.32;;
78589;SDS011;67888;50.228;7.828;2023-02-28T18:03:30;15.45;;;5.95;;
78589;SDS011;67888;50.228;7.828;2023-02-28T18:08:32;12.17;;;5.87;;
78589;SDS011;67888;50.228;7.828;2023-02-28T18:13:35;13.48;;;6.85;;
78589;SDS011;67888;50.228;7.828;2023-02-28T18:18:35;13.63;;;5.93;;
78589;SDS011;67888;50.228;7.828;2023-02-28T18:23:37;14.55;;;6.03;;
78589;SDS011;67888;50.228;7.828;2023-02-28T18:28:46;14.70;;;7.47;;
78589;SDS011;67888;50.228;7.828;2023-02-28T18:33:48;17.60;;;8.85;;
78589;SDS011;67888;50.228;7.828;2023-02-28T18:38:50;24.20;;;11.63;;
78589;SDS011;67888;50.228;7.828;2023-02-28T18:43:50;25.50;;;13.15;;
78589;SDS011;67888;50.228;7.828;2023-02-28T18:48:51;26.37;;;13.13;;
78589;SDS011;67888;50.228;7.828;2023-02-28T18:53:51;27.97;;;15.50;;
78589;SDS011;67888;50.228;7.828;2023-02-28T18:58:53;19.25;;;9.30;;
78589;SDS011;67888;50.228;7.828;2023-02-28T19:03:54;19.63;;;9.30;;
78589;SDS011;67888;50.228;7.828;2023-02-28T19:08:56;20.97;;;8.07;;
78589;SDS011;67888;50.228;7.828;2023-02-28T19:13:58;15.93;;;7.77;;
78589;SDS011;67888;50.228;7.828;2023-02-28T19:18:59;17.95;;;9.10;;
78589;SDS011;67888;50.228;7.828;2023-02-28T19:24:00;15.87;;;8.03;;
78589;SDS011;67888;50.228;7.828;2023-02-28T19:29:05;16.23;;;7.30;;
78589;SDS011;67888;50.228;7.828;2023-02-28T19:34:06;15.50;;;7.00;;
78589;SDS011;67888;50.228;7.828;2023-02-28T19:39:07;12.88;;;5.90;;
78589;SDS011;67888;50.228;7.828;2023-02-28T19:44:08;14.35;;;6.93;;
78589;SDS011;67888;50.228;7.828;2023-02-28T19:49:09;15.97;;;6.30;;
78589;SDS011;67888;50.228;7.828;2023-02-28T19:54:11;13.40;;;5.87;;
78589;SDS011;67888;50.228;7.828;2023-02-28T19:59:12;11.13;;;5.23;;
78589;SDS011;67888;50.228;7.828;2023-02-28T20:04:12;13.47;;;5.83;;
78589;SDS011;67888;50.228;7.828;2023-02-28T20:09:13;10.77;;;5.60;;
78589;SDS011;67888;50.228;7.828;2023-02-28T20:14:14;11.65;;;5.57;;
78589;SDS011;67888;50.228;7.828;2023-02-28T20:19:16;12.87;;;5.93;;
78589;SDS011;67888;50.228;7.828;2023-02-28T20:24:17;13.52;;;6.00;;
78589;SDS011;67888;50.228;7.828;2023-02-28T20:29:20;10.73;;;5.20;;
78589;SDS011;67888;50.228;7.828;2023-02-28T20:34:20;12.53;;;5.37;;
78589;SDS011;67888;50.228;7.828;2023-02-28T20:39:22;12.77;;;5.70;;
78589;SDS011;67888;50.228;7.828;2023-02-28T20:44:22;11.50;;;5.70;;
78589;SDS011;67888;50.228;7.828;2023-02-28T20:49:23;11.88;;;4.82;;
78589;SDS011;67888;50.228;7.828;2023-02-28T20:54:23;13.00;;;5.73;;
78589;SDS011;67888;50.228;7.828;2023-02-28T20:59:24;11.17;;;5.13;;
78589;SDS011;67888;50.228;7.828;2023-02-28T21:04:25;11.30;;;5.67;;
78589;SDS011;67888;50.228;7.828;2023-02-28T21:09:25;11.23;;;5.32;;
78589;SDS011;67888;50.228;7.828;2023-02-28T21:14:27;12.80;;;5.40;;
78589;SDS011;67888;50.228;7.828;2023-02-28T21:19:28;14.20;;;6.03;;
78589;SDS011;67888;50.228;7.828;2023-02-28T21:24:29;11.83;;;5.20;;
78589;SDS011;67888;50.228;7.828;2023-02-28T21:29:30;13.93;;;6.07;;
78589;SDS011;67888;50.228;7.828;2023-02-28T21:34:31;12.90;;;5.80;;
78589;SDS011;67888;50.228;7.828;2023-02-28T21:39:32;11.48;;;5.43;;
78589;SDS011;67888;50.228;7.828;2023-02-28T21:44:32;13.37;;;5.83;;
78589;SDS011;67888;50.228;7.828;2023-02-28T21:49:33;12.43;;;5.40;;
78589;SDS011;67888;50.228;7.828;2023-02-28T21:54:34;10.70;;;5.35;;
78589;SDS011;67888;50.228;7.828;2023-02-28T21:59:34;11.40;;;5.70;;
78589;SDS011;67888;50.228;7.828;2023-02-28T22:04:37;14.03;;;6.33;;
78589;SDS011;67888;50.228;7.828;2023-02-28T22:09:38;12.67;;;6.10;;
78589;SDS011;67888;50.228;7.828;2023-02-28T22:14:38;12.23;;;5.77;;
78589;SDS011;67888;50.228;7.828;2023-02-28T22:19:40;16.70;;;7.28;;
78589;SDS011;67888;50.228;7.828;2023-02-28T22:24:41;13.83;;;6.47;;
78589;SDS011;67888;50.228;7.828;2023-02-28T22:29:41;14.73;;;6.43;;
78589;SDS011;67888;50.228;7.828;2023-02-28T22:34:42;17.53;;;7.10;;
78589;SDS011;67888;50.228;7.828;2023-02-28T22:39:42;16.90;;;7.67;;
78589;SDS011;67888;50.228;7.828;2023-02-28T22:44:43;16.85;;;6.72;;
78589;SDS011;67888;50.228;7.828;2023-02-28T22:49:45;14.20;;;6.10;;
78589;SDS011;67888;50.228;7.828;2023-02-28T22:54:48;12.90;;;6.30;;
78589;SDS011;67888;50.228;7.828;2023-02-28T22:59:49;13.15;;;6.28;;
78589;SDS011;67888;50.228;7.828;2023-02-28T23:04:49;14.40;;;6.13;;
78589;SDS011;67888;50.228;7.828;2023-02-28T23:09:50;14.93;;;7.10;;
78589;SDS011;67888;50.228;7.828;2023-02-28T23:14:51;11.77;;;6.03;;
78589;SDS011;67888;50.228;7.828;2023-02-28T23:19:53;14.98;;;6.78;;
78589;SDS011;67888;50.228;7.828;2023-02-28T23:24:53;14.10;;;6.60;;
78589;SDS011;67888;50.228;7.828;2023-02-28T23:29:53;14.00;;;6.63;;
78589;SDS011;67888;50.228;7.828;2023-02-28T23:34:54;15.27;;;7.03;;
78589;SDS011;67888;50.228;7.828;2023-02-28T23:39:54;17.07;;;6.97;;
78589;SDS011;67888;50.228;7.828;2023-02-28T23:44:55;14.13;;;6.50;;
78589;SDS011;67888;50.228;7.828;2023-02-28T23:49:55;13.40;;;6.50;;
78589;SDS011;67888;50.228;7.828;2023-02-28T23:54:55;12.00;;;5.50;;
78589;SDS011;67888;50.228;7.828;2023-02-28T23:59:56;14.40;;;6.80;;
